Time;durP1;ratioP1;P1;durP2;ratioP2;P2;SDS_P1;SDS_P2;PMS_P1;PMS_P2;Temp;Humidity;BMP_temperature;BMP_pressure;BME280_temperature;BME280_humidity;BME280_pressure;Samples;Min_cycle;Max_cycle;Signal;HPM_P1;HPM_P2
2021/07/19 00:02:25;;;;;;;3.72;1.30;;;16.30;99.90;;;;;;4913961;29;20096;-82
2021/07/19 00:04:51;;;;;;;2.83;1.08;;;16.20;99.90;;;;;;4914091;29;20047;-82
2021/07/19 00:07:17;;;;;;;3.38;0.85;;;16.20;99.90;;;;;;4914084;29;20036;-82
2021/07/19 00:09:44;;;;;;;2.67;0.90;;;16.20;99.90;;;;;;4913962;29;20047;-81
2021/07/19 00:12:12;;;;;;;3.25;0.90;;;16.10;99.90;;;;;;4913848;29;20071;-82
2021/07/19 00:14:38;;;;;;;2.75;1.27;;;16.10;99.90;;;;;;4914157;29;20032;-82
2021/07/19 00:17:03;;;;;;;4.50;0.88;;;16.10;99.90;;;;;;4916846;29;20412;-82
2021/07/19 00:19:29;;;;;;;1.75;0.77;;;16.00;99.90;;;;;;4932830;29;20064;-83
2021/07/19 00:21:56;;;;;;;3.15;0.77;;;16.00;99.90;;;;;;4948713;29;20036;-83
2021/07/19 00:24:22;;;;;;;2.40;1.00;;;16.00;99.90;;;;;;4932933;29;20410;-82
2021/07/19 00:26:48;;;;;;;4.75;1.58;;;16.00;99.90;;;;;;4949706;29;20049;-82
2021/07/19 00:29:13;;;;;;;4.18;1.40;;;16.00;99.90;;;;;;4913593;29;20038;-83
2021/07/19 00:31:39;;;;;;;5.53;1.55;;;16.00;99.90;;;;;;4910442;29;20468;-83
2021/07/19 00:34:06;;;;;;;2.92;1.38;;;15.90;99.90;;;;;;4894383;29;20059;-83
2021/07/19 00:36:31;;;;;;;2.60;1.10;;;15.90;99.90;;;;;;4910273;29;20032;-83
2021/07/19 00:38:58;;;;;;;2.75;1.00;;;15.90;99.90;;;;;;4894481;29;20055;-83
2021/07/19 00:41:23;;;;;;;2.00;1.20;;;15.80;99.90;;;;;;4910224;29;20036;-83
2021/07/19 00:43:49;;;;;;;3.05;1.02;;;15.70;99.90;;;;;;4894271;29;20043;-84
2021/07/19 00:46:16;;;;;;;3.78;1.20;;;15.70;99.90;;;;;;4893865;29;20044;-83
2021/07/19 00:48:43;;;;;;;2.72;1.08;;;15.70;99.90;;;;;;4899112;29;20039;-83
2021/07/19 00:51:11;;;;;;;3.50;1.35;;;15.60;99.90;;;;;;4901808;29;20441;-83
2021/07/19 00:53:37;;;;;;;3.72;1.10;;;15.60;99.90;;;;;;4926696;29;20035;-84
2021/07/19 00:56:05;;;;;;;2.88;1.27;;;15.50;99.90;;;;;;4928666;29;20461;-82
2021/07/19 00:58:33;;;;;;;3.25;1.17;;;15.40;99.90;;;;;;4923201;29;20455;-83
2021/07/19 01:01:00;;;;;;;3.58;1.63;;;15.30;99.90;;;;;;4894041;29;20033;-83
2021/07/19 01:03:27;;;;;;;2.33;1.55;;;15.20;99.90;;;;;;4894066;29;20469;-83
2021/07/19 01:05:54;;;;;;;3.13;1.33;;;15.10;99.90;;;;;;4893901;29;20560;-83
2021/07/19 01:08:23;;;;;;;3.47;1.45;;;15.10;99.90;;;;;;4893889;29;20028;-83
2021/07/19 01:10:50;;;;;;;2.63;1.25;;;15.10;99.90;;;;;;4893928;29;20438;-83
2021/07/19 01:13:18;;;;;;;2.47;1.35;;;15.10;99.90;;;;;;4893360;29;20077;-84
2021/07/19 01:15:44;;;;;;;4.85;1.73;;;15.10;99.90;;;;;;4926422;29;20040;-83
2021/07/19 01:18:11;;;;;;;2.60;0.90;;;15.00;99.90;;;;;;4915724;29;20032;-83
2021/07/19 01:21:03;;;;;;;4.28;1.40;;;14.90;99.90;;;;;;4931543;29;20036;-83
2021/07/19 01:23:52;;;;;;;2.67;1.42;;;15.00;99.90;;;;;;4931472;29;20047;-82
2021/07/19 01:27:18;;;;;;;3.97;2.00;;;14.90;99.90;;;;;;4931549;29;20051;-83
2021/07/19 01:29:44;;;;;;;3.30;1.10;;;15.00;99.90;;;;;;4879862;29;20404;-83
2021/07/19 01:32:13;;;;;;;4.72;2.03;;;15.00;99.90;;;;;;4931148;29;20488;-83
2021/07/19 01:34:40;;;;;;;4.00;1.40;;;15.00;99.90;;;;;;4931015;29;20040;-82
2021/07/19 01:37:09;;;;;;;2.50;1.30;;;15.00;99.90;;;;;;4931340;29;20383;-82
2021/07/19 01:39:44;;;;;;;4.07;1.13;;;15.00;99.90;;;;;;4931162;29;20060;-82
2021/07/19 01:42:10;;;;;;;3.33;1.67;;;15.00;99.90;;;;;;4931149;29;20032;-82
2021/07/19 01:44:40;;;;;;;5.55;1.85;;;15.00;99.90;;;;;;4930936;29;20055;-83
2021/07/19 01:47:10;;;;;;;4.22;2.10;;;15.00;99.90;;;;;;4913648;29;20040;-83
2021/07/19 01:49:40;;;;;;;4.03;1.83;;;14.90;99.90;;;;;;4893661;29;20269;-83
2021/07/19 01:52:08;;;;;;;5.95;1.95;;;14.90;99.90;;;;;;4919253;29;20032;-83
2021/07/19 01:54:36;;;;;;;3.00;1.55;;;14.80;99.90;;;;;;4913427;29;20071;-83
2021/07/19 01:57:05;;;;;;;4.50;2.10;;;14.70;99.90;;;;;;4913927;29;20135;-83
2021/07/19 01:59:34;;;;;;;5.65;2.30;;;14.70;99.90;;;;;;4898207;29;20544;-83
2021/07/19 02:02:19;;;;;;;5.47;2.08;;;14.60;99.90;;;;;;4912292;29;20044;-83
2021/07/19 02:04:48;;;;;;;5.38;2.28;;;14.60;99.90;;;;;;4912368;29;20055;-83
2021/07/19 02:07:17;;;;;;;4.20;2.22;;;14.70;99.90;;;;;;4912251;29;20099;-83
2021/07/19 02:09:49;;;;;;;4.93;2.22;;;14.80;99.90;;;;;;4911945;29;20056;-83
2021/07/19 02:12:27;;;;;;;4.82;2.42;;;14.70;99.90;;;;;;4912254;29;20040;-83
2021/07/19 02:14:54;;;;;;;3.80;1.98;;;14.60;99.90;;;;;;4898450;29;20044;-83
2021/07/19 02:17:23;;;;;;;6.78;2.20;;;14.60;99.90;;;;;;4930588;29;20126;-83
2021/07/19 02:19:51;;;;;;;4.20;2.58;;;14.50;99.90;;;;;;4925607;29;20056;-83
2021/07/19 02:22:23;;;;;;;3.30;1.95;;;14.50;99.90;;;;;;4927939;29;20273;-83
2021/07/19 02:24:59;;;;;;;6.13;2.45;;;14.50;99.90;;;;;;4912743;29;20040;-83
2021/07/19 02:27:30;;;;;;;6.03;3.33;;;14.40;99.90;;;;;;4931577;29;20060;-83
2021/07/19 02:29:56;;;;;;;4.85;2.53;;;14.30;99.90;;;;;;4915601;29;20032;-83
2021/07/19 02:32:23;;;;;;;4.22;2.55;;;14.30;99.90;;;;;;4915578;29;20090;-83
2021/07/19 02:34:52;;;;;;;4.45;2.20;;;14.30;99.90;;;;;;4915688;29;20051;-83
2021/07/19 02:37:22;;;;;;;3.67;2.22;;;14.30;99.90;;;;;;4915585;29;20036;-83
2021/07/19 02:40:17;;;;;;;6.18;2.83;;;14.30;99.90;;;;;;4926922;29;20091;-84
2021/07/19 02:42:48;;;;;;;5.13;2.63;;;14.30;99.90;;;;;;4915706;29;20032;-83
2021/07/19 02:45:15;;;;;;;5.88;2.70;;;14.30;99.90;;;;;;4915418;29;20127;-84
2021/07/19 02:47:43;;;;;;;4.72;2.38;;;14.20;99.90;;;;;;4903465;29;20033;-83
2021/07/19 02:50:12;;;;;;;7.18;2.53;;;14.30;99.90;;;;;;4896287;29;20032;-83
2021/07/19 02:52:39;;;;;;;4.25;2.10;;;14.30;99.90;;;;;;4925210;29;20039;-82
2021/07/19 02:55:09;;;;;;;5.97;2.17;;;14.40;99.90;;;;;;4915048;29;20040;-83
2021/07/19 02:57:44;;;;;;;4.30;2.03;;;14.30;99.90;;;;;;4915157;29;20043;-82
2021/07/19 03:00:14;;;;;;;6.28;2.22;;;14.30;99.90;;;;;;4915200;29;20036;-84
2021/07/19 03:02:51;;;;;;;5.47;3.28;;;14.40;99.90;;;;;;4914981;29;20036;-83
2021/07/19 03:05:20;;;;;;;5.97;2.38;;;14.40;99.90;;;;;;4914723;29;20040;-84
2021/07/19 03:07:53;;;;;;;4.57;2.55;;;14.40;99.90;;;;;;4914693;29;20083;-83
2021/07/19 03:10:27;;;;;;;5.75;3.35;;;14.40;99.90;;;;;;4914577;29;20079;-82
2021/07/19 03:12:59;;;;;;;6.20;2.70;;;14.40;99.90;;;;;;4914964;29;20035;-84
2021/07/19 03:15:28;;;;;;;4.32;2.75;;;14.40;99.90;;;;;;4920823;29;20488;-82
2021/07/19 03:17:57;;;;;;;4.80;2.67;;;14.30;99.90;;;;;;4933573;29;20036;-83
2021/07/19 03:20:24;;;;;;;5.35;2.70;;;14.40;99.90;;;;;;4949530;29;20272;-83
2021/07/19 03:22:52;;;;;;;4.53;3.17;;;14.40;99.90;;;;;;4949639;29;20063;-84
2021/07/19 03:25:34;;;;;;;5.30;2.97;;;14.40;99.90;;;;;;4933651;29;20036;-84
2021/07/19 03:28:00;;;;;;;5.75;2.42;;;14.40;99.90;;;;;;4917593;29;20024;-83
2021/07/19 03:30:28;;;;;;;6.35;2.65;;;14.40;99.90;;;;;;4933329;29;20396;-84
2021/07/19 03:32:54;;;;;;;4.47;2.42;;;14.40;99.90;;;;;;4933431;29;20031;-83
2021/07/19 03:35:25;;;;;;;5.78;2.70;;;14.30;99.90;;;;;;4933514;29;20102;-84
2021/07/19 03:37:54;;;;;;;4.60;2.70;;;14.30;99.90;;;;;;4947843;29;20069;-83
2021/07/19 03:40:24;;;;;;;5.80;2.75;;;14.30;99.90;;;;;;4933278;29;20036;-83
2021/07/19 03:42:59;;;;;;;5.07;2.97;;;14.30;99.90;;;;;;4925068;29;20029;-82
2021/07/19 03:45:27;;;;;;;3.88;2.47;;;14.30;99.90;;;;;;4910954;29;20104;-83
2021/07/19 03:47:53;;;;;;;4.90;3.25;;;14.30;99.90;;;;;;4935852;23;20111;-83
2021/07/19 03:50:21;;;;;;;4.82;2.42;;;14.20;99.90;;;;;;4930017;29;20043;-83
2021/07/19 03:52:47;;;;;;;4.18;2.38;;;14.20;99.90;;;;;;4914703;29;20043;-83
2021/07/19 03:55:21;;;;;;;4.57;2.70;;;14.20;99.90;;;;;;4899969;29;20500;-83
2021/07/19 03:57:51;;;;;;;5.20;2.80;;;14.20;99.90;;;;;;4899006;29;20084;-83
2021/07/19 04:00:20;;;;;;;9.15;3.05;;;14.30;99.90;;;;;;4898984;29;20038;-83
2021/07/19 04:03:05;;;;;;;5.28;2.45;;;14.20;99.90;;;;;;4900133;29;20178;-83
2021/07/19 04:05:40;;;;;;;6.15;2.80;;;14.20;99.90;;;;;;4898495;29;20051;-83
2021/07/19 04:08:15;;;;;;;5.57;2.55;;;14.20;99.90;;;;;;4914649;29;20035;-83
2021/07/19 04:10:42;;;;;;;4.53;2.17;;;14.20;99.90;;;;;;4894390;29;20039;-83
2021/07/19 04:13:11;;;;;;;5.85;2.90;;;14.30;99.90;;;;;;4913595;29;20028;-83
2021/07/19 04:15:45;;;;;;;6.40;3.50;;;14.20;99.90;;;;;;4916317;29;20040;-82
2021/07/19 04:18:13;;;;;;;6.80;2.42;;;14.30;99.90;;;;;;4913142;29;20039;-83
2021/07/19 04:20:49;;;;;;;6.80;2.72;;;14.30;99.90;;;;;;4901185;29;20029;-83
2021/07/19 04:23:16;;;;;;;6.75;2.88;;;14.30;99.90;;;;;;4909682;29;20039;-83
2021/07/19 04:25:45;;;;;;;7.68;3.80;;;14.40;99.90;;;;;;4909632;29;20100;-82
2021/07/19 04:28:18;;;;;;;;;;;14.30;99.90;;;;;;4909839;29;20028;-83
2021/07/19 04:30:46;;;;;;;6.43;2.47;;;14.40;99.90;;;;;;4909897;29;19951;-82
2021/07/19 04:33:18;;;;;;;7.53;2.70;;;14.40;99.90;;;;;;4909687;29;20040;-83
2021/07/19 04:35:46;;;;;;;6.55;3.53;;;14.40;99.90;;;;;;4893682;29;20408;-83
2021/07/19 04:38:15;;;;;;;6.20;3.45;;;14.50;99.90;;;;;;4893741;29;20521;-84
2021/07/19 04:40:51;;;;;;;7.18;2.67;;;14.60;99.90;;;;;;4909576;29;20029;-82
2021/07/19 04:45:53;;;;;;;6.10;3.00;;;14.70;99.90;;;;;;4889724;29;20504;-83
2021/07/19 04:48:20;;;;;;;6.40;3.38;;;14.70;99.90;;;;;;4873366;29;20029;-82
2021/07/19 04:50:48;;;;;;;6.13;3.17;;;14.80;99.90;;;;;;4841411;29;20591;-83
2021/07/19 04:53:14;;;;;;;7.88;2.92;;;14.80;99.90;;;;;;4870040;29;20036;-82
2021/07/19 04:55:51;;;;;;;5.03;3.00;;;14.90;99.90;;;;;;4890626;29;20502;-83
2021/07/19 04:58:21;;;;;;;8.00;3.80;;;14.90;99.90;;;;;;4890187;29;20037;-83
2021/07/19 05:00:51;;;;;;;7.50;3.40;;;14.90;99.90;;;;;;4890346;29;20041;-82
2021/07/19 05:03:19;;;;;;;7.25;3.92;;;15.00;99.90;;;;;;4890351;29;20053;-83
2021/07/19 05:05:46;;;;;;;5.15;3.25;;;15.10;99.90;;;;;;4889738;29;20053;-82
2021/07/19 05:08:17;;;;;;;6.60;4.20;;;15.20;99.90;;;;;;4890057;29;20036;-82
2021/07/19 05:10:43;;;;;;;6.45;3.80;;;15.10;99.90;;;;;;4890383;29;20047;-83
2021/07/19 05:13:12;;;;;;;7.68;3.97;;;15.20;99.90;;;;;;4890130;29;20035;-83
2021/07/19 05:15:40;;;;;;;5.90;3.95;;;15.30;99.90;;;;;;4897606;29;20526;-82
2021/07/19 05:18:07;;;;;;;5.95;3.03;;;15.30;99.90;;;;;;4892827;29;20056;-82
2021/07/19 05:20:34;;;;;;;9.80;4.68;;;15.40;99.90;;;;;;4908706;29;20040;-81
2021/07/19 05:23:00;;;;;;;7.65;3.83;;;15.40;99.90;;;;;;4875941;29;20061;-81
2021/07/19 05:25:30;;;;;;;8.25;3.63;;;15.40;99.90;;;;;;4855884;29;20069;-81
2021/07/19 05:28:06;;;;;;;;;;;15.50;99.90;;;;;;4840986;29;20045;-81
2021/07/19 05:30:33;;;;;;;8.13;3.45;;;15.60;99.90;;;;;;4855745;29;20412;-81
2021/07/19 05:32:59;;;;;;;6.30;3.35;;;15.70;99.90;;;;;;4840616;29;20097;-81
2021/07/19 05:35:24;;;;;;;7.05;3.50;;;15.80;99.90;;;;;;4855741;29;20045;-81
2021/07/19 05:37:50;;;;;;;7.70;2.60;;;15.80;99.90;;;;;;4839984;29;20033;-81
2021/07/19 05:40:16;;;;;;;7.80;3.80;;;16.00;99.90;;;;;;4855608;29;20033;-80
2021/07/19 05:42:42;;;;;;;5.90;3.55;;;16.10;99.90;;;;;;4870821;29;20030;-81
2021/07/19 05:45:10;;;;;;;6.22;3.40;;;16.30;99.90;;;;;;4868022;29;20109;-80
2021/07/19 05:47:36;;;;;;;7.97;3.03;;;16.30;99.90;;;;;;4891678;23;20512;-81
2021/07/19 05:50:04;;;;;;;7.38;3.20;;;16.40;99.90;;;;;;4910264;29;20445;-81
2021/07/19 05:52:30;;;;;;;7.68;4.03;;;16.50;99.90;;;;;;4903720;29;20051;-82
2021/07/19 05:54:56;;;;;;;7.18;3.58;;;16.50;99.90;;;;;;4919519;29;20032;-81
2021/07/19 05:57:24;;;;;;;5.07;2.90;;;16.60;99.90;;;;;;4919720;29;20044;-82
2021/07/19 05:59:50;;;;;;;8.70;4.18;;;16.70;99.90;;;;;;4910852;29;20036;-82
2021/07/19 06:02:18;;;;;;;6.45;3.13;;;16.60;99.90;;;;;;4911616;29;20039;-82
2021/07/19 06:04:43;;;;;;;7.20;3.15;;;16.60;99.90;;;;;;4911031;29;20063;-81
2021/07/19 06:07:09;;;;;;;4.78;2.85;;;16.70;99.90;;;;;;4910979;29;20036;-82
2021/07/19 06:09:35;;;;;;;5.40;2.55;;;16.80;99.90;;;;;;4911282;29;20032;-82
2021/07/19 06:12:01;;;;;;;4.75;2.75;;;16.80;99.90;;;;;;4911482;29;20025;-82
2021/07/19 06:14:26;;;;;;;7.28;2.58;;;17.00;99.90;;;;;;4908798;29;20040;-82
2021/07/19 06:16:52;;;;;;;6.53;3.58;;;16.90;99.90;;;;;;4944175;29;20047;-82
2021/07/19 06:19:18;;;;;;;6.95;4.63;;;16.90;99.90;;;;;;4914270;29;20032;-81
2021/07/19 06:21:44;;;;;;;9.18;3.78;;;16.80;99.90;;;;;;4914401;29;20032;-82
2021/07/19 06:24:09;;;;;;;6.72;3.50;;;16.90;99.90;;;;;;4929623;29;20063;-81
2021/07/19 06:26:35;;;;;;;6.63;2.95;;;17.00;99.90;;;;;;4947122;29;20476;-81
2021/07/19 06:29:01;;;;;;;10.40;5.20;;;17.00;99.90;;;;;;4914258;29;20035;-82
2021/07/19 06:31:26;;;;;;;5.50;3.33;;;16.90;99.90;;;;;;4914398;29;20032;-81
2021/07/19 06:33:52;;;;;;;5.63;3.28;;;17.00;99.90;;;;;;4930135;29;20039;-81
2021/07/19 06:36:18;;;;;;;5.63;2.75;;;17.10;99.90;;;;;;4914027;29;20046;-81
2021/07/19 06:38:44;;;;;;;5.30;2.30;;;17.30;99.90;;;;;;4913426;29;20039;-82
2021/07/19 06:41:12;;;;;;;8.52;2.63;;;17.30;99.90;;;;;;4907054;29;20032;-81
2021/07/19 06:43:38;;;;;;;4.90;3.08;;;17.30;99.90;;;;;;4877978;29;20087;-82
2021/07/19 06:46:04;;;;;;;6.07;3.55;;;17.50;99.90;;;;;;4904913;29;20088;-81
2021/07/19 06:48:30;;;;;;;5.43;3.08;;;17.40;99.90;;;;;;4901797;29;20048;-83
2021/07/19 06:50:55;;;;;;;5.40;2.75;;;17.40;99.90;;;;;;4890074;29;20040;-82
2021/07/19 06:53:21;;;;;;;6.28;3.33;;;17.30;99.90;;;;;;4908640;29;20032;-83
2021/07/19 06:55:47;;;;;;;9.85;4.60;;;17.40;99.90;;;;;;4910332;29;20095;-84
2021/07/19 06:58:16;;;;;;;7.00;3.90;;;17.30;99.90;;;;;;4910820;29;20032;-85
2021/07/19 07:00:41;;;;;;;8.82;3.35;;;17.40;99.90;;;;;;4905434;29;20385;-83
2021/07/19 07:03:07;;;;;;;8.90;3.78;;;17.40;99.90;;;;;;4906718;29;20036;-83
2021/07/19 07:05:32;;;;;;;5.55;3.22;;;17.50;99.90;;;;;;4914081;29;20048;-83
2021/07/19 07:07:59;;;;;;;4.40;2.47;;;17.70;99.90;;;;;;4913880;29;20039;-84
2021/07/19 07:10:25;;;;;;;4.60;2.28;;;17.90;99.90;;;;;;4914593;29;20117;-82
2021/07/19 07:12:51;;;;;;;5.38;2.90;;;17.80;99.90;;;;;;4916171;29;20032;-82
2021/07/19 07:15:16;;;;;;;5.68;2.95;;;17.90;99.90;;;;;;4917264;29;20035;-83
2021/07/19 07:17:42;;;;;;;6.47;3.08;;;18.40;99.90;;;;;;4913643;29;20107;-82
2021/07/19 07:20:12;;;;;;;5.28;2.95;;;18.70;99.90;;;;;;4923040;29;20067;-82
2021/07/19 07:22:38;;;;;;;7.00;3.40;;;18.70;99.90;;;;;;4908804;29;20035;-82
2021/07/19 07:25:05;;;;;;;5.32;2.33;;;18.70;99.90;;;;;;4894837;29;20047;-82
2021/07/19 07:27:33;;;;;;;5.18;2.88;;;18.70;99.90;;;;;;4908837;29;20099;-82
2021/07/19 07:29:59;;;;;;;7.63;3.20;;;18.60;99.90;;;;;;4906467;29;20067;-82
2021/07/19 07:32:25;;;;;;;8.43;3.33;;;18.80;99.90;;;;;;4912117;29;20032;-82
2021/07/19 07:34:50;;;;;;;9.30;4.05;;;18.80;99.90;;;;;;4899499;29;20036;-82
2021/07/19 07:37:16;;;;;;;7.35;3.78;;;18.80;99.90;;;;;;4913573;29;20047;-82
2021/07/19 07:39:42;;;;;;;4.97;2.95;;;18.80;99.90;;;;;;4897775;29;20035;-83
2021/07/19 07:42:10;;;;;;;7.00;3.15;;;19.00;99.90;;;;;;4900493;29;20048;-83
2021/07/19 07:44:36;;;;;;;6.25;3.13;;;19.10;99.90;;;;;;4913421;29;20068;-83
2021/07/19 07:47:03;;;;;;;9.63;3.97;;;19.10;99.90;;;;;;4896875;29;20059;-83
2021/07/19 07:49:28;;;;;;;5.05;2.83;;;19.10;99.90;;;;;;4912945;29;20092;-83
2021/07/19 07:51:56;;;;;;;5.63;2.65;;;19.00;99.90;;;;;;4912560;29;20028;-83
2021/07/19 07:54:22;;;;;;;4.38;2.75;;;19.10;99.90;;;;;;4912727;29;20028;-83
2021/07/19 07:56:48;;;;;;;5.40;2.60;;;19.30;99.90;;;;;;4929911;29;20096;-83
2021/07/19 07:59:14;;;;;;;5.10;2.78;;;19.20;99.90;;;;;;4907917;29;20036;-83
2021/07/19 08:01:40;;;;;;;5.53;2.47;;;19.10;99.90;;;;;;4912846;29;20067;-84
2021/07/19 08:04:05;;;;;;;5.45;1.88;;;19.20;99.90;;;;;;4913040;29;20155;-83
2021/07/19 08:06:31;;;;;;;3.65;2.20;;;19.30;99.90;;;;;;4912391;29;20048;-83
2021/07/19 08:08:57;;;;;;;4.63;2.60;;;19.30;99.90;;;;;;4929982;29;20110;-83
2021/07/19 08:11:23;;;;;;;5.75;2.33;;;19.30;99.90;;;;;;4912895;29;20032;-83
2021/07/19 08:13:48;;;;;;;4.53;2.53;;;19.40;99.90;;;;;;4913076;29;20039;-83
2021/07/19 08:16:14;;;;;;;4.90;2.47;;;19.40;99.90;;;;;;4942034;29;20083;-83
2021/07/19 08:18:40;;;;;;;5.03;2.90;;;19.40;99.90;;;;;;4931559;29;20027;-83
2021/07/19 08:21:06;;;;;;;5.22;3.10;;;19.10;99.90;;;;;;4912481;29;20039;-84
2021/07/19 08:23:31;;;;;;;5.55;3.10;;;19.10;99.90;;;;;;4912513;29;20052;-83
2021/07/19 08:25:57;;;;;;;4.03;3.17;;;19.30;99.90;;;;;;4928602;29;20488;-84
2021/07/19 08:28:23;;;;;;;6.30;2.63;;;19.50;99.90;;;;;;4911859;29;20036;-83
2021/07/19 08:30:48;;;;;;;4.68;2.70;;;19.40;99.90;;;;;;4904923;29;20108;-83
2021/07/19 08:33:14;;;;;;;5.32;3.40;;;19.50;99.90;;;;;;4899434;29;20032;-84
2021/07/19 08:35:40;;;;;;;5.63;3.78;;;19.40;99.90;;;;;;4896582;29;20645;-83
2021/07/19 08:38:06;;;;;;;6.47;3.42;;;19.50;99.90;;;;;;4925409;29;20043;-83
2021/07/19 08:40:32;;;;;;;6.13;3.22;;;19.80;99.90;;;;;;4930723;29;20040;-83
2021/07/19 08:42:59;;;;;;;5.57;3.00;;;19.90;99.90;;;;;;4906372;29;20062;-83
2021/07/19 08:45:25;;;;;;;8.82;3.80;;;19.90;99.90;;;;;;4915452;29;20038;-82
2021/07/19 08:47:52;;;;;;;5.63;3.60;;;19.90;99.90;;;;;;4931203;29;20104;-83
2021/07/19 08:50:21;;;;;;;4.88;2.55;;;19.80;99.90;;;;;;4931558;29;20050;-83
2021/07/19 08:52:52;;;;;;;5.50;3.42;;;19.90;99.90;;;;;;4891883;29;20089;-83
2021/07/19 08:55:18;;;;;;;3.60;2.58;;;19.90;99.90;;;;;;4906757;29;20123;-84
2021/07/19 08:57:49;;;;;;;6.05;2.90;;;19.80;99.90;;;;;;4924838;29;20044;-84
2021/07/19 09:00:16;;;;;;;5.03;2.60;;;19.90;99.90;;;;;;4912214;29;20047;-84
2021/07/19 09:02:42;;;;;;;5.80;2.90;;;19.90;99.90;;;;;;4912237;29;20433;-84
2021/07/19 09:05:08;;;;;;;4.88;2.70;;;20.00;99.90;;;;;;4897302;29;20062;-84
2021/07/19 09:07:34;;;;;;;4.28;2.83;;;20.10;99.90;;;;;;4913263;29;20040;-84
2021/07/19 09:10:00;;;;;;;6.22;4.20;;;19.80;99.90;;;;;;4896837;29;20038;-84
2021/07/19 09:12:35;;;;;;;7.55;3.80;;;19.50;99.90;;;;;;4911971;29;20054;-84
2021/07/19 09:15:01;;;;;;;5.53;3.00;;;19.60;99.90;;;;;;4915112;29;20031;-84
2021/07/19 09:17:28;;;;;;;4.78;3.30;;;19.60;99.90;;;;;;4919431;29;20184;-85
2021/07/19 09:19:55;;;;;;;6.82;3.42;;;19.80;99.90;;;;;;4908866;29;20040;-84
2021/07/19 09:22:29;;;;;;;4.57;3.08;;;19.80;99.90;;;;;;4903755;29;20039;-84
2021/07/19 09:25:10;;;;;;;6.22;2.60;;;19.80;99.90;;;;;;4896329;29;20036;-84
2021/07/19 09:27:40;;;;;;;8.00;4.38;;;19.80;99.90;;;;;;4928468;29;20054;-84
2021/07/19 09:30:16;;;;;;;7.10;3.78;;;19.60;99.90;;;;;;4911881;29;20032;-84
2021/07/19 09:33:13;;;;;;;6.50;3.58;;;19.60;99.90;;;;;;4896176;29;20040;-84
2021/07/19 09:35:42;;;;;;;6.18;3.40;;;19.90;99.90;;;;;;4899900;29;20055;-84
2021/07/19 09:38:13;;;;;;;6.68;3.33;;;19.80;99.90;;;;;;4911449;29;20508;-84
2021/07/19 09:40:40;;;;;;;4.57;2.90;;;19.90;99.90;;;;;;4896196;29;20036;-84
2021/07/19 09:43:17;;;;;;;5.03;3.55;;;19.80;99.90;;;;;;4911317;29;20036;-84
2021/07/19 09:45:45;;;;;;;11.35;4.60;;;19.70;99.90;;;;;;4908158;29;20179;-84
2021/07/19 09:48:12;;;;;;;10.15;4.13;;;19.50;99.90;;;;;;4913141;23;20383;-84
2021/07/19 09:50:40;;;;;;;5.82;3.55;;;19.70;99.90;;;;;;4892288;29;20072;-84
2021/07/19 09:53:06;;;;;;;6.80;3.88;;;19.90;99.90;;;;;;4921124;29;20036;-84
2021/07/19 09:55:33;;;;;;;5.82;3.38;;;20.10;99.90;;;;;;4927161;29;20024;-84
2021/07/19 09:58:01;;;;;;;4.82;3.00;;;20.50;99.90;;;;;;4911295;29;20047;-83
2021/07/19 10:00:29;;;;;;;4.80;3.22;;;20.30;99.90;;;;;;4911734;29;20028;-84
2021/07/19 10:02:55;;;;;;;9.13;5.18;;;20.10;99.90;;;;;;4924670;29;20031;-84
2021/07/19 10:05:31;;;;;;;6.53;4.22;;;19.60;99.90;;;;;;4873456;29;20685;-83
2021/07/19 10:08:00;;;;;;;7.40;4.38;;;19.80;99.90;;;;;;4890227;29;20044;-83
2021/07/19 10:10:39;;;;;;;5.63;3.55;;;19.90;99.90;;;;;;4906335;29;20050;-84
2021/07/19 10:13:06;;;;;;;6.93;3.50;;;19.90;99.90;;;;;;4910455;29;20047;-84
2021/07/19 10:15:32;;;;;;;5.25;3.25;;;20.20;99.90;;;;;;4899003;29;20539;-85
2021/07/19 10:18:01;;;;;;;5.13;3.22;;;20.30;99.90;;;;;;4910807;29;20035;-84
2021/07/19 10:20:27;;;;;;;7.47;3.58;;;20.40;99.90;;;;;;4898677;29;20036;-84
2021/07/19 10:22:53;;;;;;;6.13;3.45;;;20.60;99.90;;;;;;4882345;29;20068;-82
2021/07/19 10:25:19;;;;;;;7.38;4.43;;;21.10;99.90;;;;;;4891929;29;20045;-83
2021/07/19 10:27:46;;;;;;;6.90;3.83;;;21.00;99.90;;;;;;4907684;29;20060;-85
2021/07/19 10:30:12;;;;;;;7.15;3.47;;;21.40;99.90;;;;;;4919265;29;20067;-84
2021/07/19 10:32:38;;;;;;;5.78;3.60;;;21.70;99.90;;;;;;4909739;29;20087;-89
2021/07/19 10:35:05;;;;;;;5.50;3.58;;;21.80;99.90;;;;;;4911025;29;20032;-85
2021/07/19 10:37:31;;;;;;;6.05;4.07;;;22.30;99.90;;;;;;4928383;29;20121;-85
2021/07/19 10:40:02;;;;;;;8.07;3.65;;;21.70;99.90;;;;;;4895672;29;20036;-84
2021/07/19 10:42:47;;;;;;;6.47;4.32;;;21.20;99.90;;;;;;4927223;29;20032;-84
2021/07/19 10:45:15;;;;;;;8.05;4.93;;;21.00;99.90;;;;;;4908255;29;20052;-85
2021/07/19 10:47:57;;;;;;;6.80;5.50;;;20.90;99.90;;;;;;4912858;29;20112;-84
2021/07/19 10:50:26;;;;;;;7.65;4.95;;;20.60;99.90;;;;;;4880512;29;20040;-84
2021/07/19 10:52:54;;;;;;;8.73;5.68;;;20.60;99.90;;;;;;4904177;29;20043;-82
2021/07/19 10:55:31;;;;;;;6.88;5.00;;;20.80;99.90;;;;;;4930594;29;20136;-84
2021/07/19 10:58:04;;;;;;;8.82;4.55;;;20.80;99.90;;;;;;4931476;29;20032;-83
2021/07/19 11:00:37;;;;;;;7.65;5.35;;;20.80;99.90;;;;;;4931704;29;20043;-85
2021/07/19 11:03:08;;;;;;;7.93;4.85;;;20.60;99.90;;;;;;4914303;29;20457;-84
2021/07/19 11:05:36;;;;;;;7.78;5.15;;;20.60;99.90;;;;;;4930116;29;20040;-84
2021/07/19 11:08:02;;;;;;;7.00;4.20;;;20.80;99.90;;;;;;4929885;29;20020;-84
2021/07/19 11:10:28;;;;;;;8.20;5.78;;;21.10;99.90;;;;;;4929921;29;20068;-84
2021/07/19 11:12:58;;;;;;;6.28;4.65;;;21.10;99.90;;;;;;4929815;29;20032;-85
2021/07/19 11:15:36;;;;;;;7.63;4.95;;;21.30;99.90;;;;;;4926440;29;20059;-84
2021/07/19 11:18:16;;;;;;;6.85;4.35;;;21.10;99.90;;;;;;4906798;29;20036;-84
2021/07/19 11:20:47;;;;;;;6.43;3.85;;;21.30;99.90;;;;;;4924203;29;20104;-85
2021/07/19 11:23:23;;;;;;;7.65;4.28;;;21.60;99.90;;;;;;4930867;29;20071;-85
2021/07/19 11:25:49;;;;;;;5.63;4.03;;;21.50;99.90;;;;;;4903251;29;20048;-83
2021/07/19 11:28:20;;;;;;;8.48;5.07;;;21.70;99.90;;;;;;4897129;29;20035;-83
2021/07/19 11:31:07;;;;;;;6.53;4.15;;;21.30;99.90;;;;;;4912515;29;20084;-85
2021/07/19 11:33:35;;;;;;;6.65;4.72;;;21.10;99.90;;;;;;4913542;29;20376;-86
2021/07/19 11:36:03;;;;;;;7.75;4.57;;;21.10;99.90;;;;;;4913372;29;20043;-86
2021/07/19 11:38:39;;;;;;;7.95;4.85;;;21.10;99.90;;;;;;4913544;29;20031;-86
2021/07/19 11:41:21;;;;;;;8.05;4.60;;;21.10;99.90;;;;;;4913656;29;20047;-85
2021/07/19 11:43:48;;;;;;;9.43;5.18;;;21.00;99.90;;;;;;4905410;29;20520;-85
2021/07/19 11:46:33;;;;;;;6.88;4.22;;;20.80;99.90;;;;;;4913358;29;20072;-86
2021/07/19 11:49:06;;;;;;;8.00;5.93;;;20.60;99.90;;;;;;4913457;29;20052;-86
2021/07/19 11:51:33;;;;;;;8.95;5.22;;;20.30;99.90;;;;;;4925175;29;20064;-85
2021/07/19 11:54:00;;;;;;;9.45;5.13;;;20.50;99.90;;;;;;4907909;29;20543;-86
2021/07/19 11:56:28;;;;;;;5.40;4.10;;;20.60;99.90;;;;;;4912818;29;20505;-84
2021/07/19 11:59:01;;;;;;;8.93;5.15;;;20.90;99.90;;;;;;4908983;29;20039;-84
2021/07/19 12:01:34;;;;;;;8.40;4.85;;;21.10;99.90;;;;;;4907372;29;20076;-84
2021/07/19 12:04:02;;;;;;;8.40;5.32;;;21.80;99.90;;;;;;4921051;29;20063;-85
2021/07/19 12:06:28;;;;;;;9.95;6.13;;;22.30;99.90;;;;;;4907908;29;20051;-85
2021/07/19 12:09:00;;;;;;;6.65;3.88;;;22.30;99.90;;;;;;4910964;29;20390;-84
2021/07/19 12:11:27;;;;;;;7.63;5.85;;;22.90;99.90;;;;;;4905523;29;20032;-87
2021/07/19 12:14:01;;;;;;;9.55;5.65;;;22.50;99.90;;;;;;4922951;29;20032;-85
2021/07/19 12:16:41;;;;;;;7.55;4.68;;;22.30;99.90;;;;;;4921537;29;20033;-85
2021/07/19 12:19:14;;;;;;;5.95;3.63;;;22.10;99.90;;;;;;4919740;29;20438;-84
2021/07/19 12:21:43;;;;;;;6.07;5.15;;;21.80;99.90;;;;;;4894242;29;20032;-85
2021/07/19 12:24:10;;;;;;;9.48;5.43;;;21.50;99.90;;;;;;4894503;29;20037;-83
2021/07/19 12:26:36;;;;;;;10.45;5.63;;;21.40;99.90;;;;;;4909850;29;20093;-84
2021/07/19 12:29:12;;;;;;;7.20;4.93;;;21.50;99.90;;;;;;4894193;29;20033;-83
2021/07/19 12:31:44;;;;;;;5.35;3.58;;;21.70;99.90;;;;;;4894118;29;20039;-84
2021/07/19 12:34:19;;;;;;;6.60;3.92;;;22.00;99.90;;;;;;4894260;29;20057;-85
2021/07/19 12:36:52;;;;;;;8.05;5.18;;;22.10;99.90;;;;;;4893820;29;20108;-84
2021/07/19 12:39:24;;;;;;;8.30;5.25;;;21.80;99.90;;;;;;4909785;29;20040;-82
2021/07/19 12:41:51;;;;;;;10.32;6.10;;;21.90;99.90;;;;;;4893949;29;20064;-84
2021/07/19 12:44:24;;;;;;;10.43;6.15;;;21.90;99.90;;;;;;4910801;29;20131;-85
2021/07/19 12:46:51;;;;;;;8.02;5.88;;;22.00;99.90;;;;;;4894950;29;20473;-84
2021/07/19 12:49:37;;;;;;;8.13;5.35;;;21.90;99.90;;;;;;4895256;29;20041;-85
2021/07/19 12:52:14;;;;;;;8.82;6.22;;;21.90;99.90;;;;;;4897688;29;20046;-86
2021/07/19 12:54:40;;;;;;;8.68;4.93;;;21.70;99.90;;;;;;4897362;29;20048;-85
2021/07/19 12:57:06;;;;;;;9.65;6.28;;;21.60;99.90;;;;;;4913194;29;20028;-85
2021/07/19 12:59:33;;;;;;;7.72;5.20;;;21.40;99.90;;;;;;4913040;29;20044;-85
2021/07/19 13:02:00;;;;;;;7.88;5.15;;;21.40;99.90;;;;;;4912771;29;20039;-85